Terminal Aerodrome Forecast
Issued by NWS

Home | Current Version | Previous Version | Text Only | Print | Product List | Glossary On
Versions: 1 2 3 4 5 6 7 8 9 10 11 12 13 14 15 16 17 18 19 20 21 22 23 24 25 26 27 28
000
FTUS46 KSGX 070903 AAC
TAFSAN
TAF AMD
KSAN 070903Z 0709/0812 23008KT P6SM SCT030 OVC050
     FM071200 23011KT P6SM VCSH BKN025 OVC050
     FM071500 22012G18KT P6SM VCSH BKN025 OVC050
     FM072000 22012G18KT P6SM VCSH SCT025 BKN050
     FM080600 21012G20KT P6SM -SHRA BKN025 OVC040=

USA.gov is the U.S. government's official web portal to all federal, state and local government web resources and services.